Helas — C4AZ2 — position and weather

sailwx.info

Track history (hours):
 
Tides and Currents Weather Stations Pressure Air Temp Water Temp Dewpoint Dewpoint Depression Visibility Wind Speed Wind Dir Waves Ship Positions

Helas

Last reported at 2014-Jul-19 14:33 UTC. Time now 2014-Jul-22 19:47 UTC.
Position N 43°52' W 003°23'.

Length 89 m; draft 5.7 m.

Type: Cargo ship. MMSI: 210031000.

Date/timePositionNaut miles runAvg speedWind from/ knotsBaromVisibWave heightAir tempDewpointWater temp
2014-Jul-19 14:33N 43°52' W 003°23'8 8.5
2014-Jul-19 13:33N 43°59' W 003°28'8 8.2
2014-Jul-19 12:33N 44°07' W 003°32'396 8.0
2014-Jul-17 11:18N 50°34' W 005°35'7 8.9
2014-Jul-17 10:33N 50°38' W 005°28'8 8.2
2014-Jul-17 09:33N 50°43' W 005°18'81 8.6
2014-Jul-17 00:10N 51°20' W 003°23'710.9
2014-Jul-16 23:34N 51°23' W 003°14'1010.1
2014-Jul-16 22:32N 51°30' W 003°01'4 4.2
2014-Jul-16 21:33N 51°33' W 002°58'0 0.3
2014-Jul-16 20:19N 51°34' W 002°58'0 0.0
2014-Jul-16 19:31N 51°34' W 002°58'0 0.0
2014-Jul-16 18:31N 51°34' W 002°58'0 0.0
2014-Jul-16 17:25N 51°34' W 002°58'0 0.0
2014-Jul-16 16:31N 51°34' W 002°58'0 0.0
2014-Jul-16 15:31N 51°34' W 002°58'0 0.0
2014-Jul-16 14:31N 51°34' W 002°58'0 0.0
2014-Jul-16 13:31N 51°34' W 002°58'0 0.0
2014-Jul-16 12:28N 51°34' W 002°58'0 0.0
2014-Jul-16 11:30N 51°34' W 002°58'0 0.0
2014-Jul-16 10:27N 51°34' W 002°58'0 0.0
2014-Jul-16 09:33N 51°34' W 002°58'0 0.0
2014-Jul-16 08:30N 51°34' W 002°58'0 0.0
2014-Jul-16 07:18N 51°34' W 002°58'0 0.0
2014-Jul-16 06:27N 51°34' W 002°58'0 0.0
2014-Jul-16 05:30N 51°34' W 002°58'0 0.0
2014-Jul-16 04:30N 51°34' W 002°58'0 0.0
2014-Jul-16 03:33N 51°34' W 002°58'0 0.0
2014-Jul-16 02:33N 51°34' W 002°58'0 0.0
2014-Jul-16 01:33N 51°34' W 002°58'0 0.0
2014-Jul-16 00:27N 51°34' W 002°58'0 0.0
2014-Jul-15 23:33N 51°34' W 002°58'0 0.0
2014-Jul-15 22:33N 51°34' W 002°58'0 0.0
2014-Jul-15 21:33N 51°34' W 002°58'0 0.0
2014-Jul-15 20:33N 51°34' W 002°58'0 0.0
2014-Jul-15 19:30N 51°34' W 002°58'0 0.0
2014-Jul-15 18:30N 51°34' W 002°58'0 0.0
2014-Jul-15 17:33N 51°34' W 002°58'0 0.0
2014-Jul-15 16:33N 51°34' W 002°58'0 0.0
2014-Jul-15 15:33N 51°34' W 002°58'0 0.0
2014-Jul-15 14:30N 51°34' W 002°58'0 0.0
2014-Jul-15 13:30N 51°34' W 002°58'0 0.0
2014-Jul-15 12:30N 51°34' W 002°58'0 0.0
2014-Jul-15 11:30N 51°34' W 002°58'0 0.0
2014-Jul-15 10:30N 51°34' W 002°58'0 0.0
2014-Jul-15 09:33N 51°34' W 002°58'1 0.7
2014-Jul-15 08:33N 51°33' W 002°59'9 8.5
2014-Jul-15 07:29N 51°25' W 003°05'1111.5
2014-Jul-15 06:33N 51°21' W 003°21'2 2.0
2014-Jul-15 05:34N 51°19' W 003°19'82 6.3
2014-Jul-14 16:33N 50°42' W 005°15'1111.0
2014-Jul-14 15:33N 50°35' W 005°28'1110.7
2014-Jul-14 14:33N 50°28' W 005°41'148 7.1
2014-Jul-13 17:33N 50°20' W 001°49'11 9.9
2014-Jul-13 16:25N 50°22' W 001°32'1011.6
2014-Jul-13 15:33N 50°24' W 001°16'1212.1
2014-Jul-13 14:33N 50°26' W 000°58'1211.7
2014-Jul-13 13:33N 50°28' W 000°39'1110.5
2014-Jul-13 12:33N 50°30' W 000°23'10 9.6
2014-Jul-13 11:30N 50°32' W 000°07'10 8.1
2014-Jul-13 10:14N 50°34' E 000°08'5 7.1
2014-Jul-13 09:32N 50°35' E 000°16'7 6.8
2014-Jul-13 08:33N 50°37' E 000°26'8 8.3
2014-Jul-13 07:33N 50°40' E 000°38'10 9.8
2014-Jul-13 06:33N 50°46' E 000°51'1110.9
2014-Jul-13 05:32N 50°52' E 001°05'1110.5
2014-Jul-13 04:32N 50°59' E 001°18'9 9.4
2014-Jul-13 03:34N 51°05' E 001°29'8 7.5
2014-Jul-13 02:34N 51°10' E 001°38'6 6.3
2014-Jul-13 01:33N 51°14' E 001°45'7 6.5
2014-Jul-13 00:34N 51°20' E 001°49'7 7.2
2014-Jul-12 23:33N 51°26' E 001°55'9 9.0
2014-Jul-12 22:33N 51°33' E 002°05'1110.6
2014-Jul-12 21:32N 51°41' E 002°17'1111.4
2014-Jul-12 20:33N 51°49' E 002°29'1111.4
2014-Jul-12 19:33N 51°58' E 002°41'1510.5
2014-Jul-12 18:08N 52°09' E 002°57'6 9.5
2014-Jul-12 17:28N 52°13' E 003°05'9 9.0
2014-Jul-12 16:25N 52°18' E 003°18'26 8.2
2014-Jul-12 13:18N 52°31' E 003°54'7 9.4
2014-Jul-12 12:33N 52°31' E 004°05'10 9.9
2014-Jul-12 11:33N 52°30' E 004°21'9 8.9
2014-Jul-12 10:33N 52°28' E 004°36'0 0.4
2014-Jul-12 09:31N 52°28' E 004°36'0 0.0
2014-Jul-12 08:31N 52°28' E 004°36'0 0.0
2014-Jul-12 07:31N 52°28' E 004°36'0 0.0
2014-Jul-12 06:31N 52°28' E 004°36'0 0.0
2014-Jul-12 05:31N 52°28' E 004°36'0 0.0
2014-Jul-12 04:31N 52°28' E 004°36'0 0.0
2014-Jul-12 03:31N 52°28' E 004°36'0 0.0
2014-Jul-12 02:31N 52°28' E 004°36'0 0.0
2014-Jul-12 01:31N 52°28' E 004°36'0 0.0
2014-Jul-12 00:28N 52°28' E 004°36'0 0.0
2014-Jul-11 23:34N 52°28' E 004°36'0 0.0
2014-Jul-11 22:33N 52°28' E 004°36'0 0.0
2014-Jul-11 21:33N 52°28' E 004°36'0 0.1
2014-Jul-11 20:33N 52°28' E 004°36'0 0.0
2014-Jul-11 19:33N 52°28' E 004°36'0 0.0
2014-Jul-11 18:33N 52°28' E 004°36'0 0.0
2014-Jul-11 17:33N 52°28' E 004°36'0 0.0
2014-Jul-11 16:33N 52°28' E 004°36'0 0.0
2014-Jul-11 15:33N 52°28' E 004°36'0 0.0
2014-Jul-11 14:33N 52°28' E 004°36'0 0.0
2014-Jul-11 13:33N 52°28' E 004°36'0 0.0
2014-Jul-11 12:30N 52°28' E 004°36'0 0.0
2014-Jul-11 11:33N 52°28' E 004°36'0 0.0
2014-Jul-11 10:33N 52°28' E 004°36'0 0.0
2014-Jul-11 09:33N 52°28' E 004°36'0 0.0
2014-Jul-11 08:32N 52°28' E 004°36'0 0.0
2014-Jul-11 07:32N 52°28' E 004°36'0 0.0
2014-Jul-11 06:32N 52°28' E 004°36'0 0.0
2014-Jul-11 05:32N 52°28' E 004°36'0 0.0
2014-Jul-11 04:32N 52°28' E 004°36'0 0.0
2014-Jul-11 03:32N 52°28' E 004°36'0 0.0
2014-Jul-11 02:29N 52°28' E 004°36'0 0.0
2014-Jul-11 01:32N 52°28' E 004°36'0 0.0
2014-Jul-11 00:32N 52°28' E 004°36'0 0.0
2014-Jul-10 23:32N 52°28' E 004°36'0 0.0
2014-Jul-10 22:32N 52°28' E 004°36'0 0.0
2014-Jul-10 21:29N 52°28' E 004°36'0 0.0
2014-Jul-10 20:29N 52°28' E 004°36'0 0.0
2014-Jul-10 19:29N 52°28' E 004°36'0 0.0
2014-Jul-10 18:26N 52°28' E 004°36'0 0.0
2014-Jul-10 17:32N 52°28' E 004°36'0 0.4
2014-Jul-10 16:33N 52°28' E 004°37'8 8.0
2014-Jul-10 15:34N 52°25' E 004°49'0 0.2
2014-Jul-10 14:29N 52°25' E 004°49'0 0.0
2014-Jul-10 13:28N 52°25' E 004°49'0 0.0
2014-Jul-10 12:31N 52°25' E 004°49'0 0.0
2014-Jul-10 11:31N 52°25' E 004°49'0 0.0
2014-Jul-10 10:31N 52°25' E 004°49'0 0.0
2014-Jul-10 09:28N 52°25' E 004°49'0 0.0
2014-Jul-10 08:31N 52°25' E 004°49'0 0.0
2014-Jul-10 07:31N 52°25' E 004°49'0 0.0
2014-Jul-10 06:31N 52°25' E 004°49'0 0.0
2014-Jul-10 05:28N 52°25' E 004°49'0 0.0
2014-Jul-10 04:31N 52°25' E 004°49'0 0.0
2014-Jul-10 03:31N 52°25' E 004°49'0 0.0
2014-Jul-10 02:31N 52°25' E 004°49'0 0.0
2014-Jul-10 01:31N 52°25' E 004°49'0 0.0
2014-Jul-10 00:31N 52°25' E 004°49'0 0.0
2014-Jul-09 23:31N 52°25' E 004°49'0 0.0
2014-Jul-09 22:31N 52°25' E 004°49'0 0.0
2014-Jul-09 21:31N 52°25' E 004°49'0 0.0
2014-Jul-09 20:31N 52°25' E 004°49'0 0.0
2014-Jul-09 19:25N 52°25' E 004°49'0 0.0
2014-Jul-09 18:31N 52°25' E 004°49'0 0.0
2014-Jul-09 17:31N 52°25' E 004°49'0 0.0
2014-Jul-09 16:31N 52°25' E 004°49'0 0.0
2014-Jul-09 15:31N 52°25' E 004°49'  
Track history (hours):
 
Tides and Currents Weather Stations Pressure Air Temp Water Temp Dewpoint Dewpoint Depression Visibility Wind Speed Wind Dir Waves Ship Positions

Helas

Last reported at 2014-Jul-19 14:33 UTC. Time now 2014-Jul-22 19:47 UTC.
Position N 43°52' W 003°23'.

Length 89 m; draft 5.7 m.

Type: Cargo ship. MMSI: 210031000.

Date/timePositionNaut miles runAvg speedWind from/ knotsBaromVisibWave heightAir tempDewpointWater temp
2014-Jul-19 14:33N 43°52' W 003°23'8 8.5
2014-Jul-19 13:33N 43°59' W 003°28'8 8.2
2014-Jul-19 12:33N 44°07' W 003°32'396 8.0
2014-Jul-17 11:18N 50°34' W 005°35'7 8.9
2014-Jul-17 10:33N 50°38' W 005°28'8 8.2
2014-Jul-17 09:33N 50°43' W 005°18'81 8.6
2014-Jul-17 00:10N 51°20' W 003°23'710.9
2014-Jul-16 23:34N 51°23' W 003°14'1010.1
2014-Jul-16 22:32N 51°30' W 003°01'4 4.2
2014-Jul-16 21:33N 51°33' W 002°58'0 0.3
2014-Jul-16 20:19N 51°34' W 002°58'0 0.0
2014-Jul-16 19:31N 51°34' W 002°58'0 0.0
2014-Jul-16 18:31N 51°34' W 002°58'0 0.0
2014-Jul-16 17:25N 51°34' W 002°58'0 0.0
2014-Jul-16 16:31N 51°34' W 002°58'0 0.0
2014-Jul-16 15:31N 51°34' W 002°58'0 0.0
2014-Jul-16 14:31N 51°34' W 002°58'0 0.0
2014-Jul-16 13:31N 51°34' W 002°58'0 0.0
2014-Jul-16 12:28N 51°34' W 002°58'0 0.0
2014-Jul-16 11:30N 51°34' W 002°58'0 0.0
2014-Jul-16 10:27N 51°34' W 002°58'0 0.0
2014-Jul-16 09:33N 51°34' W 002°58'0 0.0
2014-Jul-16 08:30N 51°34' W 002°58'0 0.0
2014-Jul-16 07:18N 51°34' W 002°58'0 0.0
2014-Jul-16 06:27N 51°34' W 002°58'0 0.0
2014-Jul-16 05:30N 51°34' W 002°58'0 0.0
2014-Jul-16 04:30N 51°34' W 002°58'0 0.0
2014-Jul-16 03:33N 51°34' W 002°58'0 0.0
2014-Jul-16 02:33N 51°34' W 002°58'0 0.0
2014-Jul-16 01:33N 51°34' W 002°58'0 0.0
2014-Jul-16 00:27N 51°34' W 002°58'0 0.0
2014-Jul-15 23:33N 51°34' W 002°58'0 0.0
2014-Jul-15 22:33N 51°34' W 002°58'0 0.0
2014-Jul-15 21:33N 51°34' W 002°58'0 0.0
2014-Jul-15 20:33N 51°34' W 002°58'0 0.0
2014-Jul-15 19:30N 51°34' W 002°58'0 0.0
2014-Jul-15 18:30N 51°34' W 002°58'0 0.0
2014-Jul-15 17:33N 51°34' W 002°58'0 0.0
2014-Jul-15 16:33N 51°34' W 002°58'0 0.0
2014-Jul-15 15:33N 51°34' W 002°58'0 0.0
2014-Jul-15 14:30N 51°34' W 002°58'0 0.0
2014-Jul-15 13:30N 51°34' W 002°58'0 0.0
2014-Jul-15 12:30N 51°34' W 002°58'0 0.0
2014-Jul-15 11:30N 51°34' W 002°58'0 0.0
2014-Jul-15 10:30N 51°34' W 002°58'0 0.0
2014-Jul-15 09:33N 51°34' W 002°58'1 0.7
2014-Jul-15 08:33N 51°33' W 002°59'9 8.5
2014-Jul-15 07:29N 51°25' W 003°05'1111.5
2014-Jul-15 06:33N 51°21' W 003°21'2 2.0
2014-Jul-15 05:34N 51°19' W 003°19'82 6.3
2014-Jul-14 16:33N 50°42' W 005°15'1111.0
2014-Jul-14 15:33N 50°35' W 005°28'1110.7
2014-Jul-14 14:33N 50°28' W 005°41'148 7.1
2014-Jul-13 17:33N 50°20' W 001°49'11 9.9
2014-Jul-13 16:25N 50°22' W 001°32'1011.6
2014-Jul-13 15:33N 50°24' W 001°16'1212.1
2014-Jul-13 14:33N 50°26' W 000°58'1211.7
2014-Jul-13 13:33N 50°28' W 000°39'1110.5
2014-Jul-13 12:33N 50°30' W 000°23'10 9.6
2014-Jul-13 11:30N 50°32' W 000°07'10 8.1
2014-Jul-13 10:14N 50°34' E 000°08'5 7.1
2014-Jul-13 09:32N 50°35' E 000°16'7 6.8
2014-Jul-13 08:33N 50°37' E 000°26'8 8.3
2014-Jul-13 07:33N 50°40' E 000°38'10 9.8
2014-Jul-13 06:33N 50°46' E 000°51'1110.9
2014-Jul-13 05:32N 50°52' E 001°05'1110.5
2014-Jul-13 04:32N 50°59' E 001°18'9 9.4
2014-Jul-13 03:34N 51°05' E 001°29'8 7.5
2014-Jul-13 02:34N 51°10' E 001°38'6 6.3
2014-Jul-13 01:33N 51°14' E 001°45'7 6.5
2014-Jul-13 00:34N 51°20' E 001°49'7 7.2
2014-Jul-12 23:33N 51°26' E 001°55'9 9.0
2014-Jul-12 22:33N 51°33' E 002°05'1110.6
2014-Jul-12 21:32N 51°41' E 002°17'1111.4
2014-Jul-12 20:33N 51°49' E 002°29'1111.4
2014-Jul-12 19:33N 51°58' E 002°41'1510.5
2014-Jul-12 18:08N 52°09' E 002°57'6 9.5
2014-Jul-12 17:28N 52°13' E 003°05'9 9.0
2014-Jul-12 16:25N 52°18' E 003°18'26 8.2
2014-Jul-12 13:18N 52°31' E 003°54'7 9.4
2014-Jul-12 12:33N 52°31' E 004°05'10 9.9
2014-Jul-12 11:33N 52°30' E 004°21'9 8.9
2014-Jul-12 10:33N 52°28' E 004°36'0 0.4
2014-Jul-12 09:31N 52°28' E 004°36'0 0.0
2014-Jul-12 08:31N 52°28' E 004°36'0 0.0
2014-Jul-12 07:31N 52°28' E 004°36'0 0.0
2014-Jul-12 06:31N 52°28' E 004°36'0 0.0
2014-Jul-12 05:31N 52°28' E 004°36'0 0.0
2014-Jul-12 04:31N 52°28' E 004°36'0 0.0
2014-Jul-12 03:31N 52°28' E 004°36'0 0.0
2014-Jul-12 02:31N 52°28' E 004°36'0 0.0
2014-Jul-12 01:31N 52°28' E 004°36'0 0.0
2014-Jul-12 00:28N 52°28' E 004°36'0 0.0
2014-Jul-11 23:34N 52°28' E 004°36'0 0.0
2014-Jul-11 22:33N 52°28' E 004°36'0 0.0
2014-Jul-11 21:33N 52°28' E 004°36'0 0.1
2014-Jul-11 20:33N 52°28' E 004°36'0 0.0
2014-Jul-11 19:33N 52°28' E 004°36'0 0.0
2014-Jul-11 18:33N 52°28' E 004°36'0 0.0
2014-Jul-11 17:33N 52°28' E 004°36'0 0.0
2014-Jul-11 16:33N 52°28' E 004°36'0 0.0
2014-Jul-11 15:33N 52°28' E 004°36'0 0.0
2014-Jul-11 14:33N 52°28' E 004°36'0 0.0
2014-Jul-11 13:33N 52°28' E 004°36'0 0.0
2014-Jul-11 12:30N 52°28' E 004°36'0 0.0
2014-Jul-11 11:33N 52°28' E 004°36'0 0.0
2014-Jul-11 10:33N 52°28' E 004°36'0 0.0
2014-Jul-11 09:33N 52°28' E 004°36'0 0.0
2014-Jul-11 08:32N 52°28' E 004°36'0 0.0
2014-Jul-11 07:32N 52°28' E 004°36'0 0.0
2014-Jul-11 06:32N 52°28' E 004°36'0 0.0
2014-Jul-11 05:32N 52°28' E 004°36'0 0.0
2014-Jul-11 04:32N 52°28' E 004°36'0 0.0
2014-Jul-11 03:32N 52°28' E 004°36'0 0.0
2014-Jul-11 02:29N 52°28' E 004°36'0 0.0
2014-Jul-11 01:32N 52°28' E 004°36'0 0.0
2014-Jul-11 00:32N 52°28' E 004°36'0 0.0
2014-Jul-10 23:32N 52°28' E 004°36'0 0.0
2014-Jul-10 22:32N 52°28' E 004°36'0 0.0
2014-Jul-10 21:29N 52°28' E 004°36'0 0.0
2014-Jul-10 20:29N 52°28' E 004°36'0 0.0
2014-Jul-10 19:29N 52°28' E 004°36'0 0.0
2014-Jul-10 18:26N 52°28' E 004°36'0 0.0
2014-Jul-10 17:32N 52°28' E 004°36'0 0.4
2014-Jul-10 16:33N 52°28' E 004°37'8 8.0
2014-Jul-10 15:34N 52°25' E 004°49'0 0.2
2014-Jul-10 14:29N 52°25' E 004°49'0 0.0
2014-Jul-10 13:28N 52°25' E 004°49'0 0.0
2014-Jul-10 12:31N 52°25' E 004°49'0 0.0
2014-Jul-10 11:31N 52°25' E 004°49'0 0.0
2014-Jul-10 10:31N 52°25' E 004°49'0 0.0
2014-Jul-10 09:28N 52°25' E 004°49'0 0.0
2014-Jul-10 08:31N 52°25' E 004°49'0 0.0
2014-Jul-10 07:31N 52°25' E 004°49'0 0.0
2014-Jul-10 06:31N 52°25' E 004°49'0 0.0
2014-Jul-10 05:28N 52°25' E 004°49'0 0.0
2014-Jul-10 04:31N 52°25' E 004°49'0 0.0
2014-Jul-10 03:31N 52°25' E 004°49'0 0.0
2014-Jul-10 02:31N 52°25' E 004°49'0 0.0
2014-Jul-10 01:31N 52°25' E 004°49'0 0.0
2014-Jul-10 00:31N 52°25' E 004°49'0 0.0
2014-Jul-09 23:31N 52°25' E 004°49'0 0.0
2014-Jul-09 22:31N 52°25' E 004°49'0 0.0
2014-Jul-09 21:31N 52°25' E 004°49'0 0.0
2014-Jul-09 20:31N 52°25' E 004°49'0 0.0
2014-Jul-09 19:25N 52°25' E 004°49'0 0.0
2014-Jul-09 18:31N 52°25' E 004°49'0 0.0
2014-Jul-09 17:31N 52°25' E 004°49'0 0.0
2014-Jul-09 16:31N 52°25' E 004°49'0 0.0
2014-Jul-09 15:31N 52°25' E 004°49'  

Dump ship's entire track history